Time;durP1;ratioP1;P1;durP2;ratioP2;P2;SDS_P1;SDS_P2;PMS_P1;PMS_P2;Temp;Humidity;BMP_temperature;BMP_pressure;BME280_temperature;BME280_humidity;BME280_pressure;Samples;Min_cycle;Max_cycle;Signal;HPM_P1;HPM_P2
2023/12/24 00:03:27;;;;;;;4.23;0.67;;;1.80;99.90;;;-0.22;100.00;99205.31;10492713;27;96561;-89
2023/12/24 00:08:31;;;;;;;0.83;0.50;;;1.80;99.90;;;-0.25;100.00;99218.59;10485455;27;97816;-89
2023/12/24 00:13:34;;;;;;;1.70;0.80;;;1.80;99.90;;;-0.22;100.00;99217.53;10468282;27;96642;-89
2023/12/24 00:18:38;;;;;;;1.20;0.63;;;1.80;99.90;;;-0.24;100.00;99206.38;10462242;27;96500;-89
2023/12/24 00:23:42;;;;;;;1.57;0.77;;;1.80;99.90;;;-0.31;100.00;99196.41;10456688;27;96544;-89
2023/12/24 00:28:49;;;;;;;1.57;0.73;;;1.80;99.90;;;-0.25;100.00;99208.16;10474633;27;96570;-90
2023/12/24 00:33:52;;;;;;;1.40;0.60;;;1.80;99.90;;;-0.23;100.00;99221.09;10444641;27;97713;-90
2023/12/24 00:38:56;;;;;;;3.33;0.80;;;1.80;99.90;;;-0.15;100.00;99242.19;10461338;27;97882;-91
2023/12/24 00:43:59;;;;;;;0.90;0.60;;;1.80;99.90;;;-0.14;100.00;99249.91;10486126;27;96606;-90
2023/12/24 00:49:02;;;;;;;1.73;0.60;;;1.80;99.90;;;-0.10;100.00;99246.09;10478276;27;96436;-91
2023/12/24 00:54:06;;;;;;;1.10;0.70;;;1.90;99.90;;;-0.14;100.00;99255.13;10467991;27;98003;-92
2023/12/24 00:59:09;;;;;;;1.03;0.67;;;1.90;99.90;;;-0.18;100.00;99253.72;10437574;27;96540;-91
2023/12/24 01:04:12;;;;;;;0.80;0.40;;;1.90;99.90;;;-0.10;100.00;99279.22;10469888;27;96587;-89
2023/12/24 01:09:16;;;;;;;0.70;0.60;;;1.90;99.90;;;-0.06;100.00;99296.28;10463317;27;96595;-88
2023/12/24 01:14:20;;;;;;;0.40;0.37;;;1.90;99.90;;;-0.07;100.00;99303.28;10455539;27;96723;-88
2023/12/24 01:19:23;;;;;;;1.33;0.70;;;1.90;99.90;;;-0.10;100.00;99298.31;10467698;27;96692;-88
2023/12/24 01:24:27;;;;;;;0.43;0.33;;;1.90;99.90;;;-0.11;100.00;99306.28;10442920;27;98206;-88
2023/12/24 01:29:30;;;;;;;0.67;0.40;;;1.90;99.90;;;-0.10;100.00;99307.94;10463597;27;96510;-90
2023/12/24 01:34:34;;;;;;;0.20;0.20;;;1.90;99.90;;;-0.05;100.00;99316.25;10477264;27;96707;-89
2023/12/24 01:39:38;;;;;;;0.43;0.20;;;1.90;99.90;;;-0.08;100.00;99322.53;10482859;27;96806;-90
2023/12/24 01:44:41;;;;;;;1.00;0.20;;;1.90;99.90;;;-0.04;100.00;99323.13;10480864;27;96821;-90
2023/12/24 01:49:45;;;;;;;1.00;0.50;;;1.90;99.90;;;-0.03;100.00;99325.63;10484053;27;96715;-89
2023/12/24 01:54:50;;;;;;;1.07;0.50;;;2.00;99.90;;;-0.05;100.00;99311.03;10464175;27;96740;-90
2023/12/24 01:59:54;;;;;;;1.37;0.30;;;1.90;99.90;;;-0.08;100.00;99326.94;10460684;27;97570;-89
2023/12/24 02:04:59;;;;;;;0.60;0.50;;;1.90;99.90;;;-0.08;100.00;99311.25;10466194;27;97175;-89
2023/12/24 02:10:03;;;;;;;0.53;0.30;;;1.90;99.90;;;-0.09;100.00;99325.28;10469285;27;96550;-88
2023/12/24 02:15:06;;;;;;;1.00;0.33;;;1.90;99.90;;;-0.13;100.00;99316.00;10475704;27;97723;-89
2023/12/24 02:20:10;;;;;;;1.37;0.40;;;1.90;99.90;;;-0.12;100.00;99317.66;10465749;27;98163;-89
2023/12/24 02:25:14;;;;;;;1.50;0.70;;;1.90;99.90;;;-0.14;100.00;99319.56;10462269;27;96708;-90
2023/12/24 02:30:28;;;;;;;1.87;0.70;;;1.90;99.90;;;-0.13;100.00;99316.84;10461678;27;97018;-90
2023/12/24 02:35:37;;;;;;;1.60;0.60;;;1.90;99.90;;;-0.13;100.00;99311.63;10451322;27;96966;-90
2023/12/24 02:40:40;;;;;;;1.20;0.67;;;1.90;99.90;;;-0.12;100.00;99305.47;10466014;27;96653;-91
2023/12/24 02:45:44;;;;;;;1.70;0.90;;;1.90;99.90;;;-0.11;100.00;99306.28;10484656;27;96402;-92
2023/12/24 02:50:48;;;;;;;0.97;0.60;;;1.90;99.90;;;-0.11;100.00;99308.91;10481290;27;96518;-90
2023/12/24 02:55:52;;;;;;;1.33;0.83;;;1.90;99.90;;;-0.08;100.00;99326.94;10477856;27;96432;-91
2023/12/24 03:00:55;;;;;;;2.07;0.90;;;1.90;99.90;;;-0.04;100.00;99323.13;10459149;27;97005;-90
2023/12/24 03:05:58;;;;;;;1.43;0.67;;;2.00;99.90;;;-0.02;100.00;99322.03;10480261;27;96457;-90
2023/12/24 03:11:02;;;;;;;1.53;0.60;;;2.00;99.90;;;0.07;100.00;99325.72;10480533;27;96660;-92
2023/12/24 03:16:06;;;;;;;1.07;0.70;;;2.10;99.90;;;0.12;100.00;99320.97;10458871;27;97511;-91
2023/12/24 03:21:10;;;;;;;1.10;0.70;;;2.10;99.90;;;0.16;100.00;99334.59;10467148;27;98237;-87
2023/12/24 03:26:21;;;;;;;1.27;0.77;;;2.20;99.90;;;0.17;100.00;99334.47;10464334;27;96543;-87
2023/12/24 03:31:26;;;;;;;9.95;3.63;;;2.20;99.90;;;0.20;100.00;99330.78;10448620;27;97788;-87
2023/12/24 03:36:29;;;;;;;13.37;4.53;;;2.20;99.90;;;0.21;100.00;99322.81;10466835;27;96436;-86
2023/12/24 03:41:33;;;;;;;13.97;5.10;;;2.30;99.90;;;0.23;100.00;99326.13;10467631;27;96587;-88
2023/12/24 03:46:37;;;;;;;15.57;6.50;;;2.30;99.90;;;0.24;100.00;99326.97;10471540;27;96600;-87
2023/12/24 03:51:40;;;;;;;10.30;4.60;;;2.30;99.90;;;0.24;100.00;99325.19;10466279;27;96339;-87
2023/12/24 03:56:43;;;;;;;13.20;3.63;;;2.30;99.90;;;0.24;100.00;99316.50;10460525;27;96549;-88
2023/12/24 04:01:48;;;;;;;4.37;1.63;;;2.30;99.90;;;0.23;100.00;99325.31;10473606;27;96693;-87
2023/12/24 04:06:51;;;;;;;3.33;1.80;;;2.30;99.90;;;0.20;100.00;99323.78;10461620;27;96477;-87
2023/12/24 04:11:55;;;;;;;9.80;2.80;;;2.30;99.90;;;0.23;100.00;99326.13;10476189;27;96868;-87
2023/12/24 04:17:02;;;;;;;4.67;1.97;;;2.30;99.90;;;0.23;100.00;99307.84;10486678;27;96556;-87
2023/12/24 04:22:05;;;;;;;4.97;2.37;;;2.30;99.90;;;0.22;100.00;99313.19;10476329;27;96709;-88
2023/12/24 04:27:10;;;;;;;4.00;1.90;;;2.30;99.90;;;0.23;100.00;99315.69;10467321;27;96671;-88
2023/12/24 04:32:13;;;;;;;6.73;2.90;;;2.30;99.90;;;0.19;100.00;99306.44;10448248;27;96603;-88
2023/12/24 04:37:17;;;;;;;7.60;3.37;;;2.30;99.90;;;0.23;100.00;99300.00;10462496;27;96762;-89
2023/12/24 04:42:20;;;;;;;10.53;4.73;;;2.30;99.90;;;0.24;100.00;99300.81;10466693;27;96509;-87
2023/12/24 04:47:24;;;;;;;16.30;6.83;;;2.30;99.90;;;0.27;100.00;99300.59;10459671;27;96536;-88
2023/12/24 04:52:28;;;;;;;20.77;8.43;;;2.30;99.90;;;0.26;100.00;99296.31;10464980;27;97577;-87
2023/12/24 04:57:32;;;;;;;12.67;5.60;;;2.30;99.90;;;0.28;100.00;99301.41;10468428;27;96606;-88
2023/12/24 05:02:35;;;;;;;6.70;3.10;;;2.30;99.90;;;0.28;100.00;99301.41;10454228;27;96685;-87
2023/12/24 05:07:38;;;;;;;6.83;3.30;;;2.30;99.90;;;0.29;100.00;99313.53;10465659;27;96828;-86
2023/12/24 05:12:42;;;;;;;10.97;4.63;;;2.30;99.90;;;0.30;100.00;99304.72;10467122;27;97026;-86
2023/12/24 05:17:45;;;;;;;6.33;2.87;;;2.40;99.90;;;0.30;100.00;99304.72;10443232;27;97853;-87
2023/12/24 05:22:49;;;;;;;39.53;9.43;;;2.40;99.90;;;0.30;100.00;99296.88;10473352;27;98076;-87
2023/12/24 05:27:53;;;;;;;61.80;13.70;;;2.40;99.90;;;0.35;100.00;99306.03;10469109;27;97514;-84
2023/12/24 05:32:56;;;;;;;59.87;16.40;;;2.40;99.90;;;0.34;100.00;99293.91;10485052;27;96664;-84
2023/12/24 05:38:00;;;;;;;51.33;16.43;;;2.40;99.90;;;0.34;100.00;99299.13;10467988;27;96512;-84
2023/12/24 05:43:04;;;;;;;21.67;9.23;;;2.40;99.90;;;0.37;100.00;99296.28;10471046;27;96439;-84
2023/12/24 05:48:08;;;;;;;14.67;7.97;;;2.40;99.90;;;0.38;100.00;99294.50;10474076;27;97954;-84
2023/12/24 05:53:11;;;;;;;15.20;6.67;;;2.40;99.90;;;0.39;100.00;99296.16;10502287;27;96655;-84
2023/12/24 05:58:15;;;;;;;12.53;5.53;;;2.40;99.90;;;0.40;100.00;99305.66;10489822;27;96588;-84
2023/12/24 06:03:19;;;;;;;10.93;4.77;;;2.40;99.90;;;0.42;100.00;99299.38;10467454;27;97670;-83
2023/12/24 06:08:23;;;;;;;9.87;4.90;;;2.50;99.90;;;0.47;100.00;99291.13;10483409;27;96590;-83
2023/12/24 06:13:27;;;;;;;7.40;3.47;;;2.50;99.90;;;0.69;100.00;99300.66;10453283;27;96638;-86
2023/12/24 06:18:30;;;;;;;5.23;2.53;;;2.70;99.90;;;0.99;100.00;99285.00;10467296;27;96815;-86
2023/12/24 06:23:33;;;;;;;3.63;1.70;;;2.90;99.90;;;1.31;100.00;99286.69;10457287;27;96556;-86
2023/12/24 06:28:37;;;;;;;7.70;2.70;;;3.20;99.90;;;1.49;100.00;99290.34;10465814;27;96639;-88
2023/12/24 06:33:41;;;;;;;3.33;1.70;;;3.50;99.90;;;1.77;100.00;99295.81;10471511;27;96637;-86
2023/12/24 06:38:45;;;;;;;2.87;1.50;;;3.70;99.90;;;1.92;100.00;99294.47;10460512;27;96816;-86
2023/12/24 06:43:49;;;;;;;2.90;1.60;;;3.90;99.90;;;2.08;100.00;99297.38;10448853;27;96783;-84
2023/12/24 06:48:52;;;;;;;3.43;1.67;;;4.00;99.90;;;2.23;100.00;99310.94;10450647;27;98151;-86
2023/12/24 06:53:55;;;;;;;2.90;1.57;;;4.10;99.90;;;2.41;100.00;99313.72;10443444;27;98132;-88
2023/12/24 06:58:59;;;;;;;3.63;1.00;;;4.30;99.90;;;2.63;100.00;99312.59;10445643;27;96879;-87
2023/12/24 07:04:03;;;;;;;6.07;2.83;;;4.50;99.90;;;2.82;100.00;99303.88;10445378;27;97045;-86
2023/12/24 07:09:07;;;;;;;3.00;1.40;;;4.70;99.90;;;2.99;100.00;99308.41;10450171;27;96899;-84
2023/12/24 07:14:10;;;;;;;2.20;1.20;;;4.90;99.90;;;3.12;100.00;99318.59;10443263;27;96910;-86
2023/12/24 07:19:14;;;;;;;2.40;1.40;;;5.00;99.90;;;3.23;100.00;99321.88;10473873;27;96640;-85
2023/12/24 07:24:17;;;;;;;2.30;1.10;;;5.20;99.90;;;3.29;100.00;99323.13;10451503;27;97390;-86
2023/12/24 07:29:21;;;;;;;1.63;0.80;;;5.20;99.90;;;3.34;100.00;99328.78;10462274;27;97716;-85
2023/12/24 07:34:24;;;;;;;1.07;0.87;;;5.30;99.90;;;3.44;100.00;99340.09;10456288;27;96510;-85
2023/12/24 07:39:27;;;;;;;2.13;1.20;;;5.30;99.90;;;3.46;100.00;99322.38;10452414;27;96779;-85
2023/12/24 07:44:30;;;;;;;17.70;9.00;;;5.40;99.90;;;3.56;100.00;99335.47;10482203;27;96649;-84
2023/12/24 07:49:35;;;;;;;17.83;8.87;;;5.50;99.90;;;3.67;100.00;99345.00;10471622;27;96552;-86
2023/12/24 07:54:38;;;;;;;18.67;9.30;;;5.50;99.90;;;3.73;100.00;99357.56;10476407;27;96726;-83
2023/12/24 07:59:41;;;;;;;10.77;5.63;;;5.60;99.90;;;3.79;100.00;99356.97;10458645;27;97898;-83
2023/12/24 08:04:45;;;;;;;1.93;1.40;;;5.70;99.90;;;3.90;100.00;99361.19;10463887;27;96609;-83
2023/12/24 08:09:49;;;;;;;2.30;1.10;;;5.70;99.90;;;4.03;100.00;99367.78;10484763;27;96612;-81
2023/12/24 08:14:53;;;;;;;1.20;0.70;;;5.90;99.90;;;4.26;100.00;99367.38;10453220;27;96935;-82
2023/12/24 08:19:56;;;;;;;0.50;0.30;;;6.10;99.90;;;4.42;100.00;99377.22;10469237;27;98034;-82
2023/12/24 08:25:00;;;;;;;0.90;0.40;;;6.20;99.90;;;4.52;100.00;99372.75;10446329;27;97142;-85
2023/12/24 08:30:05;;;;;;;4.30;0.77;;;6.40;99.90;;;4.64;100.00;99378.63;10471653;27;96523;-81
2023/12/24 08:35:10;;;;;;;0.77;0.50;;;6.50;99.90;;;4.70;100.00;99391.19;10462305;27;96543;-83
2023/12/24 08:40:17;;;;;;;1.47;0.60;;;6.50;99.90;;;4.78;100.00;99402.59;10466408;27;96741;-83
2023/12/24 08:45:22;;;;;;;3.10;1.47;;;6.60;99.90;;;4.79;100.00;99406.06;10471133;27;96541;-83
2023/12/24 08:50:27;;;;;;;2.30;1.03;;;6.60;99.90;;;4.82;100.00;99409.22;10454838;27;96601;-84
2023/12/24 08:55:30;;;;;;;3.50;1.57;;;6.70;99.90;;;4.78;100.00;99417.56;10469000;27;96715;-84
2023/12/24 09:00:33;;;;;;;3.20;1.47;;;6.60;99.90;;;4.72;100.00;99426.06;10462701;27;96656;-84
2023/12/24 09:05:37;;;;;;;2.00;1.00;;;6.60;99.90;;;4.74;100.00;99426.75;10472397;27;96574;-85
2023/12/24 09:10:41;;;;;;;2.03;0.90;;;6.60;99.90;;;4.87;100.00;99429.84;10474706;27;96855;-85
2023/12/24 09:15:44;;;;;;;1.70;0.70;;;6.70;99.90;;;4.90;100.00;99424.25;10469482;27;96951;-83
2023/12/24 09:20:49;;;;;;;2.80;1.07;;;6.80;99.90;;;4.92;100.00;99422.31;10484969;27;96615;-83
2023/12/24 09:25:52;;;;;;;1.43;0.60;;;6.80;99.90;;;4.94;100.00;99423.00;10480102;27;96698;-83
2023/12/24 09:30:58;;;;;;;1.30;0.90;;;6.80;99.90;;;4.97;100.00;99427.94;10475995;27;96534;-82
2023/12/24 09:36:07;;;;;;;2.67;0.50;;;6.80;99.90;;;5.05;100.00;99422.78;10467622;27;96685;-83
2023/12/24 09:41:10;;;;;;;7.07;3.60;;;6.90;99.90;;;5.23;100.00;99425.38;10470048;27;96710;-82
2023/12/24 09:46:14;;;;;;;20.87;7.90;;;7.00;99.90;;;5.34;100.00;99432.22;10457522;27;96945;-84
2023/12/24 09:51:18;;;;;;;17.10;6.50;;;7.20;99.90;;;5.40;100.00;99441.28;10485538;27;96645;-83
2023/12/24 09:56:21;;;;;;;12.27;4.00;;;7.30;99.90;;;5.43;100.00;99441.84;10454874;27;97110;-84
2023/12/24 10:01:25;;;;;;;4.23;2.63;;;7.30;99.90;;;5.45;100.00;99439.88;10470864;27;98026;-83
2023/12/24 10:06:30;;;;;;;3.30;1.10;;;7.30;99.90;;;5.44;100.00;99440.84;10445869;27;98050;-83
2023/12/24 10:11:36;;;;;;;2.70;1.27;;;7.30;99.90;;;5.32;100.00;99419.19;10451654;27;97970;-84
2023/12/24 10:16:45;;;;;;;5.70;1.40;;;7.30;99.90;;;5.45;100.00;99434.59;10470911;27;97853;-82
2023/12/24 10:22:08;;;;;;;2.53;1.10;;;7.40;99.90;;;5.53;100.00;99439.13;10452003;27;97944;-83
2023/12/24 10:27:13;;;;;;;1.40;0.50;;;7.40;99.90;;;5.70;100.00;99434.75;10457959;27;97681;-81
2023/12/24 10:32:23;;;;;;;0.93;0.80;;;7.60;99.90;;;5.83;100.00;99432.56;10470345;27;97009;-83
2023/12/24 10:37:29;;;;;;;2.83;1.63;;;7.70;99.90;;;5.88;100.00;99432.91;10463867;27;96722;-84
2023/12/24 10:42:33;;;;;;;2.33;1.30;;;7.80;99.90;;;5.78;100.00;99437.47;10463999;27;96502;-83
2023/12/24 10:47:38;;;;;;;3.10;1.27;;;7.70;99.90;;;5.70;100.00;99443.53;10474543;27;96611;-82
2023/12/24 10:52:41;;;;;;;2.17;1.40;;;7.60;99.90;;;5.62;100.00;99441.63;10473497;27;96652;-83
2023/12/24 10:58:07;;;;;;;1.70;1.00;;;7.50;99.90;;;5.64;100.00;99447.59;10450618;27;97831;-82
2023/12/24 11:03:10;;;;;;;2.47;0.80;;;7.50;99.90;;;5.56;100.00;99447.53;10483536;27;96612;-83
2023/12/24 11:08:19;;;;;;;3.67;2.20;;;7.40;99.90;;;5.54;100.00;99417.03;10456191;27;97806;-82
2023/12/24 11:13:32;;;;;;;1.93;1.30;;;7.40;99.90;;;5.56;100.00;99410.63;10466232;27;97566;-83
2023/12/24 11:18:47;;;;;;;2.77;1.60;;;7.40;99.90;;;5.63;100.00;99389.75;10464849;27;96609;-83
2023/12/24 11:24:12;;;;;;;5.47;1.73;;;7.40;99.90;;;5.72;100.00;99382.72;10476257;27;96629;-84
2023/12/24 11:29:41;;;;;;;1.23;0.80;;;7.50;99.90;;;5.81;100.00;99382.59;10472997;27;96743;-85
2023/12/24 11:34:45;;;;;;;2.40;1.30;;;7.60;99.90;;;5.84;100.00;99368.28;10470474;27;96461;-84
2023/12/24 11:40:12;;;;;;;1.53;0.93;;;7.70;99.90;;;5.88;100.00;99377.53;10441629;27;96642;-85
2023/12/24 11:45:29;;;;;;;2.17;0.83;;;7.70;99.90;;;5.92;100.00;99370.97;10468060;27;96668;-84
2023/12/24 11:50:34;;;;;;;1.30;0.67;;;7.80;99.90;;;5.96;100.00;99371.50;10469019;27;96911;-84
2023/12/24 11:55:37;;;;;;;3.03;1.43;;;7.80;99.90;;;6.01;100.00;99364.78;10463062;27;96577;-83
2023/12/24 12:00:41;;;;;;;4.20;2.03;;;7.90;99.90;;;6.10;100.00;99353.25;10464108;27;96857;-88
2023/12/24 12:05:44;;;;;;;7.33;2.40;;;8.00;99.90;;;6.20;100.00;99362.84;10486128;27;96466;-88
2023/12/24 12:10:49;;;;;;;8.43;3.30;;;8.00;99.90;;;6.28;100.00;99357.59;10465621;27;96596;-85
2023/12/24 12:15:52;;;;;;;5.43;3.33;;;8.10;99.90;;;6.37;100.00;99367.19;10463244;27;98021;-86
2023/12/24 12:20:56;;;;;;;2.77;1.10;;;8.20;99.90;;;6.47;100.00;99362.59;10485424;27;96864;-85
2023/12/24 12:25:59;;;;;;;3.30;1.47;;;8.30;99.90;;;6.54;100.00;99368.88;10466869;27;96565;-86
2023/12/24 12:31:04;;;;;;;1.77;1.20;;;8.40;99.90;;;6.62;100.00;99370.72;10468121;27;97026;-86
2023/12/24 12:36:07;;;;;;;2.07;1.30;;;8.50;99.90;;;6.69;100.00;99356.69;10481462;27;98044;-85
2023/12/24 12:41:11;;;;;;;1.77;1.00;;;8.60;99.90;;;6.79;100.00;99363.63;10453731;27;96646;-85
2023/12/24 12:46:14;;;;;;;2.07;1.10;;;8.60;99.90;;;6.89;100.00;99361.66;10473350;27;97550;-85
2023/12/24 12:51:18;;;;;;;5.37;2.33;;;8.80;99.90;;;6.97;100.00;99359.84;10463322;27;97331;-85
2023/12/24 12:56:21;;;;;;;2.77;1.40;;;8.80;99.90;;;7.01;100.00;99360.31;10472850;27;96718;-86
2023/12/24 13:01:24;;;;;;;2.53;1.03;;;8.90;99.90;;;7.09;100.00;99349.78;10467674;27;96485;-85
2023/12/24 13:06:28;;;;;;;1.10;0.70;;;9.00;99.90;;;7.14;100.00;99358.03;10471669;27;97923;-84
2023/12/24 13:11:32;;;;;;;1.63;0.80;;;9.00;99.90;;;7.19;100.00;99347.75;10461334;27;96533;-86
2023/12/24 13:16:35;;;;;;;1.70;1.00;;;9.10;99.90;;;7.19;100.00;99336.38;10459789;27;96835;-86
2023/12/24 13:21:39;;;;;;;1.03;0.80;;;9.10;99.90;;;7.24;100.00;99347.28;10455575;27;96969;-86
2023/12/24 13:26:42;;;;;;;1.80;1.00;;;9.10;99.90;;;7.25;100.00;99338.34;10472613;27;97941;-85
2023/12/24 13:31:46;;;;;;;3.80;1.60;;;9.20;99.90;;;7.23;100.00;99338.53;10461503;27;97367;-86
2023/12/24 13:36:49;;;;;;;2.37;1.37;;;9.20;99.90;;;7.19;100.00;99342.47;10464261;27;96672;-86
2023/12/24 13:41:53;;;;;;;4.10;1.40;;;9.10;99.90;;;7.20;100.00;99338.06;10481680;27;97328;-86
2023/12/24 13:46:57;;;;;;;2.07;1.17;;;9.10;99.90;;;7.18;100.00;99340.84;10476331;27;96529;-90
2023/12/24 13:52:02;;;;;;;1.50;0.77;;;9.10;99.90;;;7.23;100.00;99337.69;10498863;27;96682;-93
2023/12/24 13:57:07;;;;;;;2.90;1.30;;;9.10;99.90;;;7.22;100.00;99336.88;10493150;27;96504;-92
2023/12/24 14:02:11;;;;;;;2.60;1.20;;;9.10;99.90;;;7.16;100.00;99334.91;10490349;27;97948;-92
2023/12/24 14:07:14;;;;;;;6.33;2.13;;;9.10;99.90;;;7.17;100.00;99344.47;10464363;27;96478;-93
2023/12/24 14:12:34;;;;;;;2.50;1.20;;;9.10;99.90;;;7.14;100.00;99350.09;10500155;27;96715;-92
2023/12/24 14:17:38;;;;;;;3.73;1.73;;;9.10;99.90;;;7.11;100.00;99341.69;10472306;27;98028;-91
2023/12/24 14:22:41;;;;;;;14.87;5.17;;;9.00;99.90;;;7.12;100.00;99341.50;10484289;27;96744;-91
2023/12/24 14:27:44;;;;;;;14.00;4.27;;;9.00;99.90;;;7.04;100.00;99362.66;10473351;27;96612;-92
2023/12/24 14:32:49;;;;;;;3.80;1.87;;;9.00;99.90;;;6.95;100.00;99371.56;10469089;27;97167;-91
2023/12/24 14:37:52;;;;;;;2.60;1.33;;;8.90;99.90;;;6.89;100.00;99374.84;10465603;27;96476;-93
2023/12/24 14:42:55;;;;;;;3.30;1.10;;;8.90;99.90;;;6.86;100.00;99380.47;10452517;27;97977;-92
2023/12/24 14:48:00;;;;;;;2.67;1.07;;;8.80;99.90;;;6.86;100.00;99398.97;10468558;27;96639;-92
2023/12/24 14:53:04;;;;;;;2.37;0.97;;;8.80;99.90;;;6.77;100.00;99379.63;10477176;27;96847;-92
2023/12/24 14:58:10;;;;;;;2.53;1.40;;;8.70;99.90;;;6.77;100.00;99384.09;10479981;27;96676;-85
2023/12/24 15:03:14;;;;;;;2.67;1.57;;;8.70;99.90;;;6.69;100.00;99379.63;10467159;27;96972;-86
2023/12/24 15:08:17;;;;;;;3.90;1.60;;;8.60;99.90;;;6.68;100.00;99389.38;10459185;27;98115;-87
2023/12/24 15:13:20;;;;;;;2.63;1.50;;;8.50;99.90;;;6.61;100.00;99382.25;10456434;27;97907;-87
2023/12/24 15:18:24;;;;;;;2.50;1.37;;;8.50;99.90;;;6.54;100.00;99403.19;10484064;27;96846;-88
2023/12/24 15:23:27;;;;;;;3.17;1.53;;;8.40;99.90;;;6.47;100.00;99401.34;10469936;27;96626;-89
2023/12/24 15:28:31;;;;;;;4.20;2.57;;;8.40;99.90;;;6.51;100.00;99416.72;10462294;27;96775;-88
2023/12/24 15:33:37;;;;;;;6.30;2.57;;;8.40;99.90;;;6.47;100.00;99406.63;10487946;27;96566;-88
2023/12/24 15:38:41;;;;;;;6.53;2.73;;;8.40;99.90;;;6.49;100.00;99425.78;10472791;27;97965;-88
2023/12/24 15:43:45;;;;;;;5.23;2.30;;;8.40;99.90;;;6.50;100.00;99428.25;10466556;27;96686;-87
2023/12/24 15:48:49;;;;;;;3.63;1.90;;;8.40;99.90;;;6.53;100.00;99427.91;10455518;27;96626;-86
2023/12/24 15:53:52;;;;;;;2.80;1.40;;;8.40;99.90;;;6.58;100.00;99428.28;10473125;27;98032;-86
2023/12/24 15:58:55;;;;;;;2.43;1.60;;;8.40;99.90;;;6.62;100.00;99426.16;10465332;27;96564;-87
2023/12/24 16:04:00;;;;;;;2.83;1.50;;;8.40;99.90;;;6.62;100.00;99429.59;10452332;27;96519;-87
2023/12/24 16:09:03;;;;;;;3.67;1.87;;;8.40;99.90;;;6.56;100.00;99422.34;10475818;27;96877;-86
2023/12/24 16:14:07;;;;;;;5.70;2.50;;;8.40;99.90;;;6.45;100.00;99427.91;10456740;27;96688;-87
2023/12/24 16:19:13;;;;;;;3.40;1.80;;;8.40;99.90;;;6.37;100.00;99435.81;10473501;27;96866;-87
2023/12/24 16:24:17;;;;;;;4.83;2.70;;;8.20;99.90;;;6.24;100.00;99425.69;10470238;27;97712;-87
2023/12/24 16:29:21;;;;;;;5.17;2.47;;;8.10;99.90;;;6.17;100.00;99438.66;10439753;27;98479;-86
2023/12/24 16:34:25;;;;;;;6.77;3.50;;;8.10;99.90;;;6.10;100.00;99428.91;10464902;27;97898;-87
2023/12/24 16:39:28;;;;;;;8.40;3.80;;;7.90;99.90;;;6.05;100.00;99424.09;10477633;27;96613;-88
2023/12/24 16:44:34;;;;;;;4.73;2.83;;;7.90;99.90;;;6.01;100.00;99422.78;10425268;27;98521;-87
2023/12/24 16:49:38;;;;;;;3.17;1.80;;;7.90;99.90;;;6.00;100.00;99421.16;10418231;27;98868;-83
2023/12/24 16:54:41;;;;;;;4.27;1.73;;;7.80;99.90;;;6.00;100.00;99423.78;10435785;27;97396;-93
2023/12/24 16:59:45;;;;;;;3.50;2.00;;;7.90;99.90;;;6.04;100.00;99422.47;10442446;27;98269;-92
2023/12/24 17:04:49;;;;;;;3.30;1.60;;;7.90;99.90;;;6.09;100.00;99422.00;10440431;27;96630;-94
2023/12/24 17:09:52;;;;;;;2.63;1.60;;;7.90;99.90;;;6.14;100.00;99444.28;10425499;27;96827;-90
2023/12/24 17:14:55;;;;;;;3.57;1.70;;;8.00;99.90;;;6.07;100.00;99439.81;10456970;27;96678;-92
2023/12/24 17:20:00;;;;;;;1.77;1.10;;;8.00;99.90;;;6.14;100.00;99446.91;10459513;27;97982;-90
2023/12/24 17:25:03;;;;;;;1.97;1.13;;;8.00;99.90;;;6.10;100.00;99437.66;10479361;27;97750;-89
2023/12/24 17:30:08;;;;;;;2.80;1.50;;;7.90;99.90;;;6.04;100.00;99426.91;10488359;27;97955;-90
2023/12/24 17:35:11;;;;;;;2.40;1.30;;;8.00;99.90;;;6.10;100.00;99436.84;10465510;27;97929;-91
2023/12/24 17:40:15;;;;;;;3.63;1.80;;;8.00;99.90;;;6.12;100.00;99440.16;10461581;27;96609;-89
2023/12/24 17:45:19;;;;;;;2.90;1.47;;;8.00;99.90;;;6.12;100.00;99440.16;10465882;27;97196;-88
2023/12/24 17:50:22;;;;;;;4.97;2.20;;;7.90;99.90;;;6.14;100.00;99435.53;10449324;27;98044;-87
2023/12/24 17:55:25;;;;;;;2.83;1.10;;;8.00;99.90;;;6.17;100.00;99440.50;10468439;27;96955;-87
2023/12/24 18:00:29;;;;;;;1.87;1.17;;;8.00;99.90;;;6.20;100.00;99434.09;10452857;27;98057;-87
2023/12/24 18:05:33;;;;;;;2.00;1.10;;;8.00;99.90;;;6.24;100.00;99425.69;10459246;27;97336;-88
2023/12/24 18:10:38;;;;;;;2.30;1.10;;;8.00;99.90;;;6.27;100.00;99414.81;10461500;27;98342;-90
2023/12/24 18:15:41;;;;;;;2.50;1.47;;;8.10;99.90;;;6.31;100.00;99413.53;10443768;27;97743;-90
2023/12/24 18:20:45;;;;;;;1.67;0.90;;;8.10;99.90;;;6.36;100.00;99429.72;10469162;27;97090;-88
2023/12/24 18:25:48;;;;;;;2.20;0.80;;;8.20;99.90;;;6.45;100.00;99433.19;10472788;27;97367;-87
2023/12/24 18:30:51;;;;;;;1.40;0.60;;;8.30;99.90;;;6.59;100.00;99414.09;10465791;27;97697;-87
2023/12/24 18:35:55;;;;;;;1.53;0.70;;;8.40;99.90;;;6.67;100.00;99406.19;10454092;27;98081;-87
2023/12/24 18:40:59;;;;;;;1.70;0.70;;;8.50;99.90;;;6.86;100.00;99420.09;10458371;27;97128;-86
2023/12/24 18:46:05;;;;;;;2.03;1.00;;;8.60;99.90;;;6.96;100.00;99423.41;10468817;27;96635;-87
2023/12/24 18:51:11;;;;;;;1.70;0.70;;;8.70;99.90;;;7.02;100.00;99421.91;10447328;27;97766;-87
2023/12/24 18:56:28;;;;;;;1.30;0.67;;;8.80;99.90;;;7.05;100.00;99411.03;10462815;27;96874;-89
2023/12/24 19:01:31;;;;;;;1.83;0.70;;;8.90;99.90;;;7.17;100.00;99415.81;10464664;27;98069;-88
2023/12/24 19:06:35;;;;;;;1.50;0.70;;;8.90;99.90;;;7.23;100.00;99403.75;10451960;27;96946;-87
2023/12/24 19:11:39;;;;;;;1.43;0.70;;;9.00;99.90;;;7.35;100.00;99401.59;10457851;27;96708;-87
2023/12/24 19:16:42;;;;;;;3.13;1.13;;;9.10;99.90;;;7.41;100.00;99404.41;10468547;27;96849;-87
2023/12/24 19:21:47;;;;;;;1.67;0.80;;;9.20;99.90;;;7.47;100.00;99413.50;10467026;27;96822;-88
2023/12/24 19:26:52;;;;;;;4.70;1.20;;;9.30;99.90;;;7.50;100.00;99390.19;10445622;27;96686;-88
2023/12/24 19:31:55;;;;;;;1.23;0.60;;;9.30;99.90;;;7.51;100.00;99404.25;10453651;27;97975;-86
2023/12/24 19:37:00;;;;;;;2.17;0.90;;;9.30;99.90;;;7.61;100.00;99409.34;10456631;27;97619;-87
2023/12/24 19:42:05;;;;;;;1.70;0.87;;;9.40;99.90;;;7.63;100.00;99392.31;10462879;27;97809;-85
2023/12/24 19:47:09;;;;;;;2.10;1.00;;;9.50;99.90;;;7.78;100.00;99406.47;10456609;27;96719;-86
2023/12/24 19:52:13;;;;;;;4.03;0.90;;;9.60;99.90;;;7.89;100.00;99396.53;10468513;27;96829;-86
2023/12/24 19:57:30;;;;;;;3.53;1.30;;;9.70;99.90;;;7.95;100.00;99390.56;10448323;27;96789;-87
2023/12/24 20:02:34;;;;;;;2.30;1.10;;;9.70;99.90;;;7.95;100.00;99374.69;10454648;27;96987;-87
2023/12/24 20:07:38;;;;;;;1.73;0.90;;;9.70;99.90;;;7.91;100.00;99378.69;10472894;27;97047;-87
2023/12/24 20:12:41;;;;;;;4.03;1.70;;;9.70;99.90;;;7.78;100.00;99380.03;10454514;27;97331;-88
2023/12/24 20:17:45;;;;;;;3.73;1.37;;;9.70;99.90;;;7.72;100.00;99388.66;10449715;27;97950;-86
2023/12/24 20:22:49;;;;;;;8.13;2.60;;;9.60;99.90;;;7.65;100.00;99392.16;10458149;27;97928;-85
2023/12/24 20:27:52;;;;;;;2.20;1.20;;;9.50;99.90;;;7.61;100.00;99399.56;10455922;27;96699;-87
2023/12/24 20:32:56;;;;;;;2.00;0.90;;;9.50;99.90;;;7.57;100.00;99395.63;10462446;27;97191;-90
2023/12/24 20:38:00;;;;;;;1.70;0.87;;;9.40;99.90;;;7.52;100.00;99405.88;10456855;27;96904;-87
2023/12/24 20:43:03;;;;;;;2.87;0.83;;;9.30;99.90;;;7.49;100.00;99409.69;10475703;27;98030;-88
2023/12/24 20:48:07;;;;;;;7.40;1.00;;;9.30;99.90;;;7.46;100.00;99402.09;10472533;27;97787;-87
2023/12/24 20:53:12;;;;;;;2.00;1.10;;;9.30;99.90;;;7.40;100.00;99391.38;10457469;27;97994;-86
2023/12/24 20:58:23;;;;;;;1.33;0.77;;;9.30;99.90;;;7.41;100.00;99404.41;10466361;27;96675;-88
2023/12/24 21:03:26;;;;;;;2.00;0.83;;;9.20;99.90;;;7.37;100.00;99400.44;10463197;27;96901;-87
2023/12/24 21:08:35;;;;;;;2.20;0.90;;;9.20;99.90;;;7.34;100.00;99406.06;10456098;27;99952;-88
2023/12/24 21:13:38;;;;;;;1.50;1.00;;;9.10;99.90;;;7.26;100.00;99403.44;10452765;27;97682;-88
2023/12/24 21:18:41;;;;;;;1.80;1.00;;;9.10;99.90;;;7.24;100.00;99416.81;10437088;27;96579;-88